Ingomar, Mississippi
Current Conditions -  °F | °C
As of 5:53 AM on Friday 24 Oct 2014 (Local Time) from KTUP Reporting Station
Clear Clear  
Wind Chill: 45°   Ceiling: Unl
Heat Index: 47°   Visibility: 10mi
Dew Point: 44°   Wind: 5mph
Humidity: 90%   Direction: 10°N
Pressure: 30.11"   Gusts: NA
Location:  34.4917°N, 88.9766°W
Report Text: KTUP 241053Z 01004KT 10SM CLR 08/07 A3011 RMK AO2 SLP197 T00830067
Loading
Personal Weather Stations






























Interactive Weather Map
Tropical Storm Tracking
New forecast layout! Learn more

10-Day Weather Forecast

Advertisements
Track Severe Weather on mobile